Time;durP1;ratioP1;P1;durP2;ratioP2;P2;SDS_P1;SDS_P2;PMS_P1;PMS_P2;Temp;Humidity;BMP_temperature;BMP_pressure;BME280_temperature;BME280_humidity;BME280_pressure;Samples;Min_cycle;Max_cycle;Signal;HPM_P1;HPM_P2
2021/04/02 00:02:18;;;;;;;;;;;;;;;19.09;60.95;100934.72;5104432;28;1279;-71
2021/04/02 00:04:44;;;;;;;;;;;;;;;19.08;61.12;100928.59;5110380;28;1042;-71
2021/04/02 00:07:11;;;;;;;;;;;;;;;19.07;61.19;100916.34;5109709;28;1232;-71
2021/04/02 00:09:37;;;;;;;;;;;;;;;19.07;61.15;100924.25;5110129;28;1964;-71
2021/04/02 00:12:04;;;;;;;;;;;;;;;19.05;61.17;100928.78;5109815;28;1274;-71
2021/04/02 00:14:30;;;;;;;;;;;;;;;19.06;61.50;100935.75;5109806;28;1410;-71
2021/04/02 00:16:56;;;;;;;;;;;;;;;19.05;61.26;100941.97;5109763;28;1228;-71
2021/04/02 00:19:23;;;;;;;;;;;;;;;19.05;61.35;100941.97;5091593;28;1105;-71
2021/04/02 00:21:49;;;;;;;;;;;;;;;19.06;61.26;100945.44;5091252;28;1275;-71
2021/04/02 00:24:15;;;;;;;;;;;;;;;19.04;61.38;100929.69;5109909;28;939;-71
2021/04/02 00:26:42;;;;;;;;;;;;;;;19.03;61.37;100935.06;5091100;28;1421;-70
2021/04/02 00:29:09;;;;;;;;;;;;;;;19.05;61.46;100949.03;5090894;28;1987;-71
2021/04/02 00:31:35;;;;;;;;;;;;;;;19.04;61.40;100953.47;5109496;28;1338;-71
2021/04/02 00:34:02;;;;;;;;;;;;;;;19.03;61.62;100958.81;5109663;28;1127;-71
2021/04/02 00:36:28;;;;;;;;;;;;;;;19.03;61.49;100970.22;5109431;28;1247;-71
2021/04/02 00:38:55;;;;;;;;;;;;;;;19.02;61.49;100971.19;5109638;28;941;-70
2021/04/02 00:41:21;;;;;;;;;;;;;;;19.03;61.43;100972.88;5108668;28;1240;-71
2021/04/02 00:43:50;;;;;;;;;;;;;;;19.02;61.64;100965.91;5109805;28;1198;-71
2021/04/02 00:46:18;;;;;;;;;;;;;;;19.01;61.52;100958.91;5091250;28;1227;-71
2021/04/02 00:48:45;;;;;;;;;;;;;;;19.02;61.64;100951.84;5109710;28;1983;-71
2021/04/02 00:51:13;;;;;;;;;;;;;;;19.01;61.58;100950.13;5109320;28;1450;-71
2021/04/02 00:53:40;;;;;;;;;;;;;;;19.00;61.65;100932.56;5091373;28;960;-71
2021/04/02 00:56:08;;;;;;;;;;;;;;;19.00;61.52;100929.94;5109516;28;1232;-71
2021/04/02 00:58:35;;;;;;;;;;;;;;;19.00;61.55;100929.94;5109399;28;1065;-71
2021/04/02 01:01:05;;;;;;;;;;;;;;;18.99;61.75;100922.97;5108997;28;1220;-71
2021/04/02 01:03:32;;;;;;;;;;;;;;;18.98;61.65;100908.91;5109168;28;1131;-71
2021/04/02 01:05:59;;;;;;;;;;;;;;;18.98;61.65;100911.56;5109039;28;779;-71
2021/04/02 01:08:27;;;;;;;;;;;;;;;19.00;61.63;100909.69;5109083;28;2029;-71
2021/04/02 01:10:56;;;;;;;;;;;;;;;19.00;61.65;100911.47;5091297;28;857;-71
2021/04/02 01:13:22;;;;;;;;;;;;;;;18.98;61.71;100893.09;5090815;28;1247;-71
2021/04/02 01:15:53;;;;;;;;;;;;;;;18.97;61.62;100888.72;5090974;28;746;-71
2021/04/02 01:18:26;;;;;;;;;;;;;;;18.97;61.71;100882.59;5109097;28;1357;-71
2021/04/02 01:20:55;;;;;;;;;;;;;;;18.97;61.67;100878.16;5109417;28;735;-71
2021/04/02 01:23:23;;;;;;;;;;;;;;;18.97;61.53;100872.03;5108930;28;1184;-71
2021/04/02 01:26:12;;;;;;;;;;;;;;;18.95;61.60;100860.72;5109411;28;863;-70
2021/04/02 01:28:47;;;;;;;;;;;;;;;18.93;61.50;100834.41;5109092;28;1910;-71
2021/04/02 01:31:15;;;;;;;;;;;;;;;18.95;61.52;100826.41;5090301;28;1307;-71
2021/04/02 01:33:41;;;;;;;;;;;;;;;18.94;61.33;100795.66;5108826;28;1133;-71
2021/04/02 01:36:11;;;;;;;;;;;;;;;18.93;61.47;100780.78;5108767;28;1342;-71
2021/04/02 01:38:38;;;;;;;;;;;;;;;18.92;61.22;100774.63;5090674;28;1058;-71
2021/04/02 01:41:06;;;;;;;;;;;;;;;18.93;61.55;100763.16;5108886;28;1318;-71
2021/04/02 01:43:39;;;;;;;;;;;;;;;18.93;61.31;100754.38;5090669;28;1132;-71
2021/04/02 01:46:06;;;;;;;;;;;;;;;18.93;61.26;100759.66;5108786;28;1275;-71
2021/04/02 01:48:33;;;;;;;;;;;;;;;18.93;61.49;100770.22;5108358;28;1914;-71
2021/04/02 01:51:00;;;;;;;;;;;;;;;18.92;61.56;100777.28;5108165;28;1193;-70
2021/04/02 01:53:27;;;;;;;;;;;;;;;18.92;61.48;100777.28;5092166;28;1514;-70
2021/04/02 01:55:54;;;;;;;;;;;;;;;18.90;61.49;100800.28;5112643;28;834;-70
2021/04/02 01:58:21;;;;;;;;;;;;;;;18.92;61.41;100827.44;5094162;28;1205;-70
2021/04/02 02:00:50;;;;;;;;;;;;;;;18.92;61.39;100830.06;5077203;28;1207;-71
2021/04/02 02:03:17;;;;;;;;;;;;;;;18.92;61.39;100845.91;5093937;28;1416;-70
2021/04/02 02:05:46;;;;;;;;;;;;;;;18.91;61.46;100861.81;5112618;28;802;-70
2021/04/02 02:08:13;;;;;;;;;;;;;;;18.91;61.39;100875.88;5094218;28;2009;-70
2021/04/02 02:10:40;;;;;;;;;;;;;;;18.91;61.32;100865.31;5112290;28;999;-69
2021/04/02 02:13:07;;;;;;;;;;;;;;;18.89;61.33;100848.72;5093490;28;1631;-70
2021/04/02 02:15:38;;;;;;;;;;;;;;;18.90;61.41;100855.72;5094199;28;2144;-71
2021/04/02 02:18:06;;;;;;;;;;;;;;;18.89;61.28;100868.97;5113112;28;1334;-69
2021/04/02 02:20:37;;;;;;;;;;;;;;;18.88;61.25;100862.84;5078191;28;1776;-70
2021/04/02 02:23:03;;;;;;;;;;;;;;;18.87;61.42;100858.53;5112428;28;1275;-70
2021/04/02 02:25:30;;;;;;;;;;;;;;;18.88;61.36;100857.56;5077397;28;1953;-69
2021/04/02 02:27:56;;;;;;;;;;;;;;;18.87;61.43;100858.53;5112624;28;1981;-69
2021/04/02 02:30:28;;;;;;;;;;;;;;;18.88;61.31;100860.19;5093988;28;1100;-68
2021/04/02 02:32:56;;;;;;;;;;;;;;;18.88;61.39;100856.72;5112384;28;1224;-68
2021/04/02 02:35:26;;;;;;;;;;;;;;;18.88;61.44;100854.91;5076766;28;1386;-68
2021/04/02 02:37:58;;;;;;;;;;;;;;;18.87;61.24;100852.38;5078444;28;1283;-70
2021/04/02 02:40:32;;;;;;;;;;;;;;;18.87;61.45;100857.66;5079031;28;1279;-71
2021/04/02 02:42:59;;;;;;;;;;;;;;;18.87;61.44;100850.59;5113695;28;1239;-70
2021/04/02 02:45:26;;;;;;;;;;;;;;;18.88;61.49;100840.88;5114494;28;1231;-71
2021/04/02 02:47:53;;;;;;;;;;;;;;;18.85;61.50;100833.97;5113755;28;1972;-71
2021/04/02 02:50:21;;;;;;;;;;;;;;;18.86;61.52;100833.06;5112718;28;893;-71
2021/04/02 02:52:48;;;;;;;;;;;;;;;18.87;61.49;100839.19;5093818;28;1319;-69
2021/04/02 02:55:18;;;;;;;;;;;;;;;18.87;61.50;100850.59;5093773;28;904;-69
2021/04/02 02:57:48;;;;;;;;;;;;;;;18.87;61.55;100841.81;5077249;28;1295;-69
2021/04/02 03:00:19;;;;;;;;;;;;;;;18.86;61.63;100848.88;5079879;28;1253;-70
2021/04/02 03:02:49;;;;;;;;;;;;;;;18.86;61.43;100862.09;5121388;28;1254;-71
2021/04/02 03:05:24;;;;;;;;;;;;;;;18.86;61.56;100853.31;5120088;28;1068;-68
2021/04/02 03:07:52;;;;;;;;;;;;;;;18.86;61.74;100851.53;5112701;28;1240;-69
2021/04/02 03:10:19;;;;;;;;;;;;;;;18.85;61.66;100846.31;5112843;28;1135;-70
2021/04/02 03:12:46;;;;;;;;;;;;;;;18.84;61.63;100849.91;5111849;28;1251;-70
2021/04/02 03:15:14;;;;;;;;;;;;;;;18.86;61.60;100851.53;5076200;28;1217;-69
2021/04/02 03:17:42;;;;;;;;;;;;;;;18.83;61.54;100849.06;5092880;28;1364;-70
2021/04/02 03:20:10;;;;;;;;;;;;;;;18.83;61.65;100846.41;5093082;28;1601;-71
2021/04/02 03:22:38;;;;;;;;;;;;;;;18.83;61.68;100848.19;5076635;28;1595;-69
2021/04/02 03:25:08;;;;;;;;;;;;;;;18.84;61.59;100849.91;5112096;28;920;-70
2021/04/02 03:27:38;;;;;;;;;;;;;;;18.83;61.67;100846.41;5111895;28;1212;-69
2021/04/02 03:30:08;;;;;;;;;;;;;;;18.83;61.64;100851.69;5094506;28;1902;-70
2021/04/02 03:32:37;;;;;;;;;;;;;;;18.83;61.59;100850.84;5112087;28;1346;-69
2021/04/02 03:35:05;;;;;;;;;;;;;;;18.84;61.70;100856.06;5111281;28;1069;-70
2021/04/02 03:37:33;;;;;;;;;;;;;;;18.82;61.64;100847.34;5093255;28;1239;-69
2021/04/02 03:40:00;;;;;;;;;;;;;;;18.82;61.56;100847.34;5111048;28;1110;-71
2021/04/02 03:42:28;;;;;;;;;;;;;;;18.83;61.63;100850.84;5114929;28;1243;-69
2021/04/02 03:44:57;;;;;;;;;;;;;;;18.81;61.74;100839.53;5112742;28;1039;-68
2021/04/02 03:47:26;;;;;;;;;;;;;;;18.80;61.82;100836.03;5110930;28;1322;-69
2021/04/02 03:49:54;;;;;;;;;;;;;;;18.82;61.60;100841.22;5110058;28;1912;-68
2021/04/02 03:52:30;;;;;;;;;;;;;;;18.81;61.88;100835.09;5075141;28;1686;-68
2021/04/02 03:54:59;;;;;;;;;;;;;;;18.81;62.05;100824.56;5092341;28;1097;-69
2021/04/02 03:57:27;;;;;;;;;;;;;;;18.82;62.24;100834.16;5110275;28;1294;-68
2021/04/02 03:59:57;;;;;;;;;;;;;;;18.82;62.08;100830.66;5092000;28;1484;-69
2021/04/02 04:02:26;;;;;;;;;;;;;;;18.79;62.16;100826.41;5091315;28;1843;-70
2021/04/02 04:04:53;;;;;;;;;;;;;;;18.81;62.06;100823.69;5110490;28;1055;-71
2021/04/02 04:07:21;;;;;;;;;;;;;;;18.80;62.08;100821.97;5091715;28;1264;-71
2021/04/02 04:09:48;;;;;;;;;;;;;;;18.79;62.23;100823.78;5109869;28;1917;-71
2021/04/02 04:12:15;;;;;;;;;;;;;;;18.79;62.11;100831.69;5091940;28;1220;-71
2021/04/02 04:14:43;;;;;;;;;;;;;;;18.78;62.31;100819.44;5092029;28;1073;-72
2021/04/02 04:17:11;;;;;;;;;;;;;;;18.78;62.24;100827.38;5109317;28;1334;-71
2021/04/02 04:19:38;;;;;;;;;;;;;;;18.79;62.41;100826.41;5110153;28;1041;-71
2021/04/02 04:22:06;;;;;;;;;;;;;;;18.79;62.39;100820.28;5109439;28;1168;-71
2021/04/02 04:24:33;;;;;;;;;;;;;;;18.78;62.51;100821.22;5109868;28;1048;-72
2021/04/02 04:27:02;;;;;;;;;;;;;;;18.78;62.42;100818.59;5109680;28;1302;-71
2021/04/02 04:29:32;;;;;;;;;;;;;;;18.80;62.50;100821.97;5109952;28;1997;-72
2021/04/02 04:31:59;;;;;;;;;;;;;;;18.78;62.53;100808.88;5110018;28;1346;-71
2021/04/02 04:34:27;;;;;;;;;;;;;;;18.78;62.56;100818.59;5110072;28;932;-72
2021/04/02 04:36:55;;;;;;;;;;;;;;;18.78;62.50;100822.09;5109630;28;1239;-71
2021/04/02 04:39:22;;;;;;;;;;;;;;;18.78;62.55;100819.44;5109664;28;1055;-70
2021/04/02 04:41:50;;;;;;;;;;;;;;;18.78;62.59;100819.44;5109365;28;1313;-70
2021/04/02 04:44:17;;;;;;;;;;;;;;;18.76;62.60;100823.94;5109496;28;1002;-70
2021/04/02 04:46:43;;;;;;;;;;;;;;;18.77;62.60;100819.50;5091111;28;1303;-71
2021/04/02 04:49:10;;;;;;;;;;;;;;;18.78;62.67;100816.81;5091382;28;1910;-71
2021/04/02 04:51:37;;;;;;;;;;;;;;;18.77;62.55;100815.09;5090663;28;1572;-71
2021/04/02 04:54:05;;;;;;;;;;;;;;;18.75;62.54;100806.44;5109455;28;1160;-71
2021/04/02 04:56:38;;;;;;;;;;;;;;;18.74;62.58;100799.44;5109050;28;1373;-71
2021/04/02 04:59:06;;;;;;;;;;;;;;;18.73;62.58;100792.44;5073974;28;1282;-71
2021/04/02 05:01:44;;;;;;;;;;;;;;;18.74;62.54;100796.78;5109428;28;1212;-71
2021/04/02 05:04:10;;;;;;;;;;;;;;;18.77;62.54;100790.50;5090592;28;1191;-71
2021/04/02 05:06:38;;;;;;;;;;;;;;;18.75;62.49;100781.81;5090561;28;1350;-70
2021/04/02 05:09:04;;;;;;;;;;;;;;;18.75;62.43;100776.53;5108674;28;1910;-70
2021/04/02 05:11:33;;;;;;;;;;;;;;;18.75;62.47;100781.81;5108978;28;1337;-71
2021/04/02 05:14:01;;;;;;;;;;;;;;;18.73;62.48;100784.53;5090799;28;1111;-71
2021/04/02 05:16:27;;;;;;;;;;;;;;;18.75;62.54;100785.31;5090776;28;1365;-71
2021/04/02 05:18:54;;;;;;;;;;;;;;;18.73;62.45;100779.25;5108784;28;1024;-71
2021/04/02 05:21:20;;;;;;;;;;;;;;;18.75;62.50;100779.19;5090434;28;1196;-72
2021/04/02 05:23:47;;;;;;;;;;;;;;;18.74;62.47;100772.19;5109131;28;1062;-72
2021/04/02 05:26:14;;;;;;;;;;;;;;;18.74;62.59;100773.03;5108933;28;1314;-71
2021/04/02 05:28:41;;;;;;;;;;;;;;;18.74;62.65;100775.69;5111355;28;1910;-72
2021/04/02 05:31:07;;;;;;;;;;;;;;;18.73;62.66;100781.88;5113070;28;1251;-72
2021/04/02 05:33:34;;;;;;;;;;;;;;;18.67;62.63;100769.03;5094694;28;1549;-73
2021/04/02 05:36:00;;;;;;;;;;;;;;;18.74;62.74;100780.09;5094470;28;1271;-71
2021/04/02 05:38:26;;;;;;;;;;;;;;;18.73;62.73;100783.66;5108860;27;1525;-72
2021/04/02 05:41:09;;;;;;;;;;;;;;;18.73;62.84;100778.41;5096878;28;1608;-72
2021/04/02 05:43:38;;;;;;;;;;;;;;;18.71;62.75;100775.84;5112560;28;1068;-72
2021/04/02 05:46:04;;;;;;;;;;;;;;;18.71;62.77;100775.00;5113099;28;1267;-72
2021/04/02 05:48:32;;;;;;;;;;;;;;;18.71;62.72;100778.50;5112916;28;1973;-72
2021/04/02 05:50:59;;;;;;;;;;;;;;;18.70;62.67;100776.78;5084921;28;1295;-72
2021/04/02 05:53:26;;;;;;;;;;;;;;;18.69;62.71;100764.56;5112309;28;1186;-72
2021/04/02 05:55:54;;;;;;;;;;;;;;;18.70;62.43;100763.59;5112409;28;944;-70
2021/04/02 05:58:21;;;;;;;;;;;;;;;18.70;62.46;100753.03;5111657;28;1232;-72
2021/04/02 06:00:47;;;;;;;;;;;;;;;18.69;62.35;100756.63;5112653;28;805;-72
2021/04/02 06:03:14;;;;;;;;;;;;;;;18.69;62.29;100745.22;5112806;28;1235;-72
2021/04/02 06:05:41;;;;;;;;;;;;;;;18.70;62.49;100762.72;5112696;28;1029;-71
2021/04/02 06:08:09;;;;;;;;;;;;;;;18.69;62.53;100767.19;5112626;28;1236;-72
2021/04/02 06:10:36;;;;;;;;;;;;;;;18.70;62.63;100771.50;5094264;28;1948;-70
2021/04/02 06:13:02;;;;;;;;;;;;;;;18.69;62.49;100769.81;5094137;28;1320;-71
2021/04/02 06:15:35;;;;;;;;;;;;;;;18.69;62.53;100779.53;5112774;28;938;-72
2021/04/02 06:18:02;;;;;;;;;;;;;;;18.69;62.46;100779.53;5094115;28;1260;-72
2021/04/02 06:20:32;;;;;;;;;;;;;;;18.69;62.38;100776.88;5112837;28;1043;-72
2021/04/02 06:23:02;;;;;;;;;;;;;;;18.68;62.41;100776.03;5093848;28;1330;-71
2021/04/02 06:25:28;;;;;;;;;;;;;;;18.68;62.43;100781.31;5112779;28;1162;-71
2021/04/02 06:27:54;;;;;;;;;;;;;;;18.67;62.47;100779.59;5111963;28;1222;-72
2021/04/02 06:30:26;;;;;;;;;;;;;;;18.67;62.37;100794.56;5112384;28;1905;-72
2021/04/02 06:32:53;;;;;;;;;;;;;;;18.65;62.33;100786.75;5113773;28;1173;-70
2021/04/02 06:35:28;;;;;;;;;;;;;;;18.70;62.32;100795.25;5112638;28;1474;-80
2021/04/02 06:37:58;;;;;;;;;;;;;;;18.67;62.25;100781.38;5077661;28;1334;-77
2021/04/02 06:40:30;;;;;;;;;;;;;;;18.66;62.35;100780.56;5062419;28;1235;-78
2021/04/02 06:43:00;;;;;;;;;;;;;;;18.64;62.45;100777.13;5085774;28;1267;-78
2021/04/02 06:45:30;;;;;;;;;;;;;;;18.67;62.43;100771.69;5090568;28;1043;-78
2021/04/02 06:48:12;;;;;;;;;;;;;;;18.68;62.32;100770.75;5085238;28;1429;-74
2021/04/02 06:50:38;;;;;;;;;;;;;;;18.68;62.51;100770.75;5101159;28;1898;-74
2021/04/02 06:53:05;;;;;;;;;;;;;;;18.68;62.51;100776.03;5098237;28;1523;-72
2021/04/02 06:55:31;;;;;;;;;;;;;;;18.66;62.56;100764.72;5097416;28;1167;-72
2021/04/02 06:58:09;;;;;;;;;;;;;;;18.68;62.56;100764.63;5091412;28;1232;-68
2021/04/02 07:00:38;;;;;;;;;;;;;;;18.67;62.54;100782.22;5090506;28;1297;-70
2021/04/02 07:03:06;;;;;;;;;;;;;;;18.67;62.61;100773.47;5055343;28;1319;-72
2021/04/02 07:05:33;;;;;;;;;;;;;;;18.66;62.58;100777.91;5072163;28;1191;-84
2021/04/02 07:08:02;;;;;;;;;;;;;;;18.68;62.65;100783.94;5071394;28;1191;-80
2021/04/02 07:10:29;;;;;;;;;;;;;;;18.67;62.69;100798.06;5072791;28;1982;-75
2021/04/02 07:12:56;;;;;;;;;;;;;;;18.66;62.79;100791.09;5090705;28;1331;-68
2021/04/02 07:15:23;;;;;;;;;;;;;;;18.67;62.80;100791.94;5075598;28;1527;-68
2021/04/02 07:17:49;;;;;;;;;;;;;;;18.69;62.80;100792.72;5098488;28;1314;-70
2021/04/02 07:20:16;;;;;;;;;;;;;;;18.68;62.89;100791.84;5093200;27;1379;-70
2021/04/02 07:22:42;;;;;;;;;;;;;;;18.67;62.84;100798.06;5098603;28;1311;-70
2021/04/02 07:25:09;;;;;;;;;;;;;;;18.68;62.84;100805.06;5090225;28;1146;-69
2021/04/02 07:27:37;;;;;;;;;;;;;;;18.67;62.79;100803.34;5071275;28;1260;-71
2021/04/02 07:30:04;;;;;;;;;;;;;;;18.69;62.87;100803.28;5089118;28;2314;-71
2021/04/02 07:32:31;;;;;;;;;;;;;;;18.68;62.97;100802.41;5090003;28;1314;-72
2021/04/02 07:34:58;;;;;;;;;;;;;;;18.68;63.14;100802.41;5095230;28;1577;-69
2021/04/02 07:37:25;;;;;;;;;;;;;;;18.68;62.97;100797.13;5094764;28;1346;-69
2021/04/02 07:39:54;;;;;;;;;;;;;;;18.68;62.87;100802.41;5070776;28;1161;-68
2021/04/02 07:42:21;;;;;;;;;;;;;;;18.69;62.99;100798.00;5088950;28;1327;-71
2021/04/02 07:44:53;;;;;;;;;;;;;;;18.71;62.96;100802.25;5071256;28;1539;-73
2021/04/02 07:47:20;;;;;;;;;;;;;;;18.71;63.03;100807.53;5077414;28;1361;-69
2021/04/02 07:49:51;;;;;;;;;;;;;;;18.71;62.96;100815.44;5099002;28;1910;-71
2021/04/02 07:52:28;;;;;;;;;;;;;;;18.70;62.96;100800.53;5091679;28;1522;-69
2021/04/02 07:55:14;;;;;;;;;;;;;;;18.69;63.00;100804.13;5100420;28;1486;-71
2021/04/02 07:58:00;;;;;;;;;;;;;;;18.69;63.07;100806.75;5094698;28;1530;-72
2021/04/02 08:00:36;;;;;;;;;;;;;;;18.70;63.14;100808.44;5073871;28;1460;-74
2021/04/02 08:03:16;;;;;;;;;;;;;;;18.70;63.10;100810.22;5100342;27;1431;-73
2021/04/02 08:05:54;;;;;;;;;;;;;;;18.70;63.13;100816.38;5073645;28;837;-71
2021/04/02 08:08:23;;;;;;;;;;;;;;;18.71;63.06;100820.72;5088682;28;1266;-71
2021/04/02 08:11:06;;;;;;;;;;;;;;;18.70;63.16;100823.41;5073191;28;1773;-73
2021/04/02 08:13:49;;;;;;;;;;;;;;;18.69;63.15;100827.88;5069742;28;1610;-73
2021/04/02 08:16:36;;;;;;;;;;;;;;;18.70;63.05;100829.56;5082558;28;1363;-71
2021/04/02 08:19:29;;;;;;;;;;;;;;;18.71;63.06;100836.53;5080174;28;1327;-76
2021/04/02 08:21:57;;;;;;;;;;;;;;;18.69;63.17;100834.94;5067290;28;1322;-72
2021/04/02 08:24:25;;;;;;;;;;;;;;;18.72;63.19;100832.97;5070949;28;1546;-70
2021/04/02 08:26:52;;;;;;;;;;;;;;;18.71;63.21;100828.63;5088327;28;1225;-72
2021/04/02 08:29:19;;;;;;;;;;;;;;;18.73;63.12;100839.09;5072414;28;1945;-70
2021/04/02 08:31:48;;;;;;;;;;;;;;;18.74;63.09;100832.88;5090737;28;1357;-72
2021/04/02 08:34:17;;;;;;;;;;;;;;;18.75;63.16;100837.22;5090416;28;1562;-70
2021/04/02 08:36:44;;;;;;;;;;;;;;;18.74;63.20;100833.75;5095230;28;1176;-70
2021/04/02 08:39:10;;;;;;;;;;;;;;;18.74;63.20;100833.75;5070938;28;1363;-69
2021/04/02 08:41:37;;;;;;;;;;;;;;;18.87;63.85;100834.78;5093105;28;1465;-77
2021/04/02 08:44:03;;;;;;;;;;;;;;;18.89;63.29;100832.03;5077233;27;1445;-73
2021/04/02 08:46:41;;;;;;;;;;;;;;;18.92;64.67;100834.50;5093633;28;1482;-71
2021/04/02 08:49:11;;;;;;;;;;;;;;;18.93;64.37;100837.06;5070891;28;1981;-70
2021/04/02 08:51:38;;;;;;;;;;;;;;;18.92;64.63;100832.72;5089161;28;1379;-74
2021/04/02 08:54:11;;;;;;;;;;;;;;;18.97;64.72;100835.06;5099702;28;1224;-68
2021/04/02 08:56:41;;;;;;;;;;;;;;;18.96;65.05;100830.75;5108417;28;1354;-71
2021/04/02 08:59:09;;;;;;;;;;;;;;;19.04;65.29;100831.16;5090276;28;1263;-70
2021/04/02 09:02:01;;;;;;;;;;;;;;;19.04;65.05;100839.94;5109071;28;1300;-69
2021/04/02 09:04:28;;;;;;;;;;;;;;;19.05;65.22;100833.72;5106437;28;1142;-69
2021/04/02 09:06:55;;;;;;;;;;;;;;;19.00;65.25;100833.13;5109722;28;1216;-69
2021/04/02 09:09:22;;;;;;;;;;;;;;;18.99;65.34;100835.88;5109151;28;1981;-69
2021/04/02 09:11:50;;;;;;;;;;;;;;;18.99;65.25;100833.22;5090978;28;1333;-73
2021/04/02 09:14:16;;;;;;;;;;;;;;;19.01;65.69;100842.75;5090985;28;1490;-73
2021/04/02 09:16:44;;;;;;;;;;;;;;;19.00;65.53;100833.13;5074140;28;1576;-68
2021/04/02 09:19:11;;;;;;;;;;;;;;;19.01;65.73;100826.91;5111338;28;1577;-74
2021/04/02 09:21:53;;;;;;;;;;;;;;;19.06;65.86;100831.91;5095027;28;1297;-76
2021/04/02 09:24:20;;;;;;;;;;;;;;;19.03;65.84;100830.31;5069559;28;1390;-75
2021/04/02 09:26:47;;;;;;;;;;;;;;;19.00;65.67;100830.47;5091149;28;1322;-76
2021/04/02 09:29:33;;;;;;;;;;;;;;;18.98;65.72;100828.88;5100218;28;1905;-77
2021/04/02 09:32:01;;;;;;;;;;;;;;;18.99;66.69;100825.31;5086365;28;1245;-75
2021/04/02 09:34:28;;;;;;;;;;;;;;;19.10;66.69;100821.09;5086994;28;1080;-68
2021/04/02 09:37:14;;;;;;;;;;;;;;;19.21;66.58;100827.56;5095424;28;1394;-69
2021/04/02 09:39:41;;;;;;;;;;;;;;;19.21;66.66;100817.00;5108518;28;1158;-70
2021/04/02 09:42:13;;;;;;;;;;;;;;;19.22;67.40;100819.53;5108786;28;1228;-70
2021/04/02 09:44:39;;;;;;;;;;;;;;;19.28;68.67;100820.97;5108003;28;1135;-65
2021/04/02 09:47:09;;;;;;;;;;;;;;;19.24;68.09;100822.13;5107867;28;1728;-68
2021/04/02 09:49:37;;;;;;;;;;;;;;;19.16;67.03;100819.03;5100925;28;1910;-69
2021/04/02 09:52:04;;;;;;;;;;;;;;;19.12;67.33;100823.66;5108621;28;1407;-69
2021/04/02 09:54:31;;;;;;;;;;;;;;;19.08;67.20;100816.84;5107682;28;1055;-69
2021/04/02 09:57:02;;;;;;;;;;;;;;;19.06;67.35;100816.94;5089832;28;1316;-68
2021/04/02 09:59:28;;;;;;;;;;;;;;;19.03;66.93;100813.59;5108742;28;1154;-68
2021/04/02 10:01:54;;;;;;;;;;;;;;;19.02;66.84;100818.06;5090077;28;1287;-68
2021/04/02 10:04:21;;;;;;;;;;;;;;;19.02;66.38;100820.69;5108197;28;1140;-68
2021/04/02 10:06:47;;;;;;;;;;;;;;;19.01;66.32;100818.13;5090373;28;1327;-68
2021/04/02 10:09:13;;;;;;;;;;;;;;;18.99;66.43;100823.53;5108627;28;1913;-68
2021/04/02 10:11:50;;;;;;;;;;;;;;;18.98;66.11;100805.97;5090032;28;1255;-68
2021/04/02 10:14:17;;;;;;;;;;;;;;;18.97;65.88;100811.31;5108546;28;1094;-68
2021/04/02 10:16:45;;;;;;;;;;;;;;;18.97;65.57;100809.53;5111661;28;1211;-68
2021/04/02 10:19:12;;;;;;;;;;;;;;;18.95;65.50;100806.13;5112484;28;1049;-69
2021/04/02 10:21:38;;;;;;;;;;;;;;;18.98;65.21;100807.75;5112202;28;1213;-69
2021/04/02 10:24:05;;;;;;;;;;;;;;;18.95;65.22;100800.84;5111828;28;1260;-69
2021/04/02 10:26:31;;;;;;;;;;;;;;;18.95;65.31;100795.59;5093338;28;1528;-69
2021/04/02 10:28:57;;;;;;;;;;;;;;;18.94;65.06;100793.88;5092980;28;1917;-69
2021/04/02 10:31:24;;;;;;;;;;;;;;;18.95;65.30;100779.75;5111206;28;1256;-69
2021/04/02 10:33:50;;;;;;;;;;;;;;;18.95;64.93;100786.81;5093095;28;1145;-69
2021/04/02 10:36:16;;;;;;;;;;;;;;;18.95;64.83;100782.38;5092896;28;1321;-69
2021/04/02 10:38:43;;;;;;;;;;;;;;;18.95;64.84;100784.16;5111836;28;1199;-69
2021/04/02 10:41:09;;;;;;;;;;;;;;;18.96;64.91;100783.25;5111854;28;1312;-69
2021/04/02 10:43:35;;;;;;;;;;;;;;;18.95;64.97;100781.53;5112114;28;964;-69
2021/04/02 10:46:02;;;;;;;;;;;;;;;18.95;64.70;100779.75;5111849;28;1270;-69
2021/04/02 10:48:28;;;;;;;;;;;;;;;18.96;64.78;100780.59;5093176;28;1194;-69
2021/04/02 10:50:55;;;;;;;;;;;;;;;18.95;64.84;100773.59;5092967;28;1910;-69
2021/04/02 10:53:25;;;;;;;;;;;;;;;18.94;64.84;100772.75;5111350;28;1201;-69
2021/04/02 10:55:52;;;;;;;;;;;;;;;18.95;64.76;100785.03;5111699;28;872;-69
2021/04/02 10:58:19;;;;;;;;;;;;;;;18.95;64.66;100778.88;5092816;28;1216;-69
2021/04/02 11:00:45;;;;;;;;;;;;;;;18.94;64.53;100771.91;5111329;28;1225;-69
2021/04/02 11:03:12;;;;;;;;;;;;;;;18.95;64.63;100771.81;5110974;28;1326;-68
2021/04/02 11:05:38;;;;;;;;;;;;;;;18.95;64.65;100782.38;5111652;28;1071;-69
2021/04/02 11:08:05;;;;;;;;;;;;;;;18.95;64.69;100768.34;5111204;28;1243;-69
2021/04/02 11:10:32;;;;;;;;;;;;;;;18.94;64.48;100783.31;5110823;28;1914;-69
2021/04/02 11:12:58;;;;;;;;;;;;;;;18.97;64.41;100777.00;5110732;28;1302;-68
2021/04/02 11:15:24;;;;;;;;;;;;;;;18.97;64.44;100782.28;5110775;28;1196;-69
2021/04/02 11:17:52;;;;;;;;;;;;;;;18.95;64.48;100778.88;5092704;28;1387;-68
2021/04/02 11:20:19;;;;;;;;;;;;;;;18.97;64.32;100780.50;5111586;28;1102;-68
2021/04/02 11:22:46;;;;;;;;;;;;;;;18.96;64.34;100775.31;5092747;28;1240;-68
2021/04/02 11:25:13;;;;;;;;;;;;;;;18.97;64.27;100769.94;5092075;28;918;-69
2021/04/02 11:27:39;;;;;;;;;;;;;;;18.96;64.32;100770.03;5110899;28;1232;-67
2021/04/02 11:30:08;;;;;;;;;;;;;;;18.97;64.44;100766.44;5110725;28;1922;-67
2021/04/02 11:32:34;;;;;;;;;;;;;;;18.96;64.60;100768.25;5110576;28;1295;-68
2021/04/02 11:35:00;;;;;;;;;;;;;;;18.97;64.23;100762.00;5110723;28;1129;-67
2021/04/02 11:37:27;;;;;;;;;;;;;;;18.97;64.26;100763.81;5110626;28;1230;-67
2021/04/02 11:39:53;;;;;;;;;;;;;;;18.97;64.34;100761.16;5110028;28;1072;-68
2021/04/02 11:42:19;;;;;;;;;;;;;;;18.98;64.23;100752.31;5091861;28;1228;-68
2021/04/02 11:44:45;;;;;;;;;;;;;;;18.97;64.26;100754.09;5110595;28;1189;-68
2021/04/02 11:47:11;;;;;;;;;;;;;;;18.97;64.32;100755.88;5110144;28;1208;-67
2021/04/02 11:49:47;;;;;;;;;;;;;;;18.98;64.18;100753.16;5076251;28;1984;-68
2021/04/02 11:52:13;;;;;;;;;;;;;;;18.97;64.16;100750.59;5110551;28;1520;-68
2021/04/02 11:54:40;;;;;;;;;;;;;;;18.97;64.29;100754.09;5092104;28;1788;-68
2021/04/02 11:57:07;;;;;;;;;;;;;;;18.98;64.22;100755.81;5110316;28;1236;-68
2021/04/02 11:59:34;;;;;;;;;;;;;;;18.98;64.17;100757.59;5091993;28;1378;-68
2021/04/02 12:02:05;;;;;;;;;;;;;;;18.97;64.14;100750.59;5091672;28;1645;-68
2021/04/02 12:04:32;;;;;;;;;;;;;;;18.99;64.14;100754.88;5092176;28;1087;-69
2021/04/02 12:06:59;;;;;;;;;;;;;;;19.00;64.07;100743.38;5109495;28;1302;-68
2021/04/02 12:09:25;;;;;;;;;;;;;;;18.98;64.12;100750.53;5109937;28;1981;-68
2021/04/02 12:11:53;;;;;;;;;;;;;;;18.98;64.12;100737.34;5110030;28;1216;-68
2021/04/02 12:14:22;;;;;;;;;;;;;;;19.01;64.14;100741.56;5110004;28;883;-68
2021/04/02 12:16:49;;;;;;;;;;;;;;;19.02;64.13;100743.28;5109727;28;1303;-68
2021/04/02 12:19:15;;;;;;;;;;;;;;;19.02;64.05;100741.50;5091895;28;1074;-68
2021/04/02 12:21:41;;;;;;;;;;;;;;;19.03;64.11;100735.25;5109841;28;1161;-68
2021/04/02 12:24:09;;;;;;;;;;;;;;;19.03;64.08;100734.41;5109376;28;1109;-68
2021/04/02 12:26:36;;;;;;;;;;;;;;;19.02;64.13;100728.31;5091386;28;1413;-68
2021/04/02 12:29:03;;;;;;;;;;;;;;;19.04;64.05;100722.91;5109716;28;1976;-68
2021/04/02 12:31:29;;;;;;;;;;;;;;;19.03;64.02;100722.06;5091522;28;1312;-68
2021/04/02 12:33:56;;;;;;;;;;;;;;;19.03;64.10;100729.97;5091465;28;1041;-68
2021/04/02 12:36:23;;;;;;;;;;;;;;;19.02;64.03;100717.75;5109952;28;1318;-66
2021/04/02 12:38:50;;;;;;;;;;;;;;;19.04;64.02;100712.34;5073946;28;1097;-67
2021/04/02 12:41:36;;;;;;;;;;;;;;;19.03;64.05;100714.16;5109191;28;1253;-69
2021/04/02 12:44:22;;;;;;;;;;;;;;;19.03;64.06;100711.50;5109018;28;1906;-69
2021/04/02 12:46:49;;;;;;;;;;;;;;;19.02;63.83;100701.03;5109201;28;1295;-69
2021/04/02 12:49:15;;;;;;;;;;;;;;;19.01;64.04;100705.47;5091235;28;1980;-68
2021/04/02 12:51:42;;;;;;;;;;;;;;;19.01;63.96;100704.63;5090640;28;1516;-67
2021/04/02 12:54:09;;;;;;;;;;;;;;;19.00;63.89;100697.63;5109140;28;869;-68
2021/04/02 12:56:37;;;;;;;;;;;;;;;19.00;63.91;100698.47;5091086;28;1320;-68